Boyd Deep Canyon Reserve, California Weather observations

Data are for 10 minute period ending at time listed.
 Day   Time   Solar   Ave.   Ave.  Ave.  Vector  Max.   Baro.   Total    
  of    of     Rad.   Air    Rel.  Wind   Wind   Wind  Press.  Precip.   
Year   Day            Temp.  Hum.  Speed  Dir.   Gust                    
2015   (PST)  Kw/m2    F      %     mph   deg.    mph    mb.     in.     
-------------------------------------------------------------------------
 181    3:50   0.00   87.1    29    1.3    77     4.8   974.5    0.00 
 181    4:00   0.00   86.8    30    1.1    25     2.4   974.6    0.00 
 181    4:10   0.00   86.1    30    0.7   357     1.7   974.8    0.00 
 181    4:20   0.00   86.2    29    1.1   165     1.5   974.9    0.00 
 181    4:30   0.00   86.1    29    2.0   192     3.3   975.0    0.00 
 181    4:40   0.00   85.7    30    1.5   220     2.3   975.2    0.00 
 181    4:50   0.00   85.8    30    1.8   196     4.1   975.3    0.00 
 181    5:00   0.01   85.6    30    1.9   189     4.3   975.3    0.00 
 181    5:10   0.03   85.4    30    2.2    66     3.7   975.4    0.00 
 181    5:20   0.05   85.5    30    0.4    57     1.9   975.4    0.00 
 181    5:30   0.09   86.2    29    0.3   212     1.4   975.5    0.00 
 181    5:40   0.13   89.1    27    0.0   117     0.5   975.6    0.00 
 181    5:50   0.15   89.7    26    1.3   187     2.6   975.6    0.00 
 181    6:00   0.17   90.4    26    1.1   229     2.9   975.6    0.00 
 181    6:10   0.20   90.8    26    1.8    30     3.7   975.6    0.00 
 181    6:20   0.23   91.4    26    1.6    27     2.9   975.6    0.00 
 181    6:30   0.25   91.6    28    1.5    33     3.0   975.6    0.00 
 181    6:40   0.28   91.7    27    2.6    29     4.7   975.5    0.00 
 181    6:50   0.32   91.4    28    3.4    12     5.0   975.6    0.00 
 181    7:00   0.35   91.5    28    4.5     8     6.9   975.9    0.00 
 181    7:10   0.38   91.4    28    4.0   349     6.3   976.1    0.00 
 181    7:20   0.42   92.2    27    3.6   353     5.6   976.4    0.00 
 181    7:30   0.45   92.3    26    4.8   350     6.7   976.5    0.00 
 181    7:40   0.48   92.6    27    4.2   359     6.4   976.5    0.00 
 181    7:50   0.51   92.8    27    4.2   354     6.5   976.7    0.00 
 181    8:00   0.55   93.2    32    5.6    55    13.5   976.8    0.00 
 181    8:10   0.57   91.9    37    7.6    57    13.1   977.0    0.00 
 181    8:20   0.59   91.1    40    8.4    62    13.8   977.1    0.00 
 181    8:30   0.62   90.8    41    8.1    57    14.4   977.1    0.00 
 181    8:40   0.67   91.1    40    8.1    60    15.8   977.1    0.00 
 181    8:50   0.69   91.1    41    7.5    61    13.4   977.2    0.00 
 181    9:00   0.72   91.2    40   10.1    49    17.6   977.2    0.00 
 181    9:10   0.74   91.2    41   12.3    52    18.0   977.3    0.00 
 181    9:20   0.77   90.9    41    9.3    53    15.3   977.3    0.00 
 181    9:30   0.77   91.7    40   10.2    52    17.4   977.3    0.00 
 181    9:40   0.78   91.2    40    9.3    65    17.8   977.3    0.00 
 181    9:50   0.83   91.4    40    9.6    60    15.6   977.4    0.00 
 181   10:00   0.86   92.3    39   10.9    66    19.2   977.5    0.00 
 181   10:10   0.87   92.1    40   10.4    70    18.6   977.7    0.00 
 181   10:20   0.89   92.0    40   10.8    66    18.0   977.9    0.00 
 181   10:30   0.90   92.9    37   10.2    57    18.3   977.9    0.00 
 181   10:40   0.90   93.5    36   11.1    38    16.2   977.9    0.00 
 181   10:50   0.90   93.9    37    9.4    42    18.1   977.9    0.00 
 181   11:00   0.95   94.4    37    9.4    34    14.8   978.0    0.00 
 181   11:10   0.88   94.0    38    7.7    42    14.6   978.0    0.00 
 181   11:20   1.00   94.6    37    9.3    39    14.8   977.9    0.00 
 181   11:30   0.96   95.1    36   10.8    33    17.8   977.9    0.00 
 181   11:40   0.94   95.5    36   11.7    27    18.9   977.9    0.00 
 181   11:50   0.95   95.9    36   11.1    28    20.7   977.8    0.00 
 181   12:00   1.00   96.4    34    9.0    33    15.1   977.7    0.00 
 181   12:10   0.61   95.3    35    6.6    69    15.3   977.6    0.00 
 181   12:20   0.50   95.4    34    8.0    45    14.5   977.6    0.00 
 181   12:30   0.55   95.4    34    7.2    47    11.8   977.5    0.00 
 181   12:40   0.54   96.3    32    5.9    38    11.3   977.3    0.00 
 181   12:50   0.86   96.5    32    4.4    19    11.0   977.2    0.00 
 181   13:00   0.95   97.4    31    3.0   334     6.4   976.9    0.00 
 181   13:10   0.80   98.0    30    3.4    43    10.6   976.6    0.00 
 181   13:20   0.38   98.7    31    5.8    21    11.0   976.4    0.00 
 181   13:30   0.22   97.3    34    4.5   307     7.3   976.1    0.00 
 181   13:40   0.17   97.0    33    5.2   327    13.2   975.5    0.00 
 181   13:50   0.29   97.7    32    7.4   264    12.6   974.9    0.00 
 181   14:00   0.34   97.8    31    8.6   347    16.4   974.9    0.00 
 181   14:10   0.33   98.0    30   10.4    18    15.3   974.8    0.00 
 181   14:20   0.31   97.3    31    7.1     2    11.6   974.8    0.00 
 181   14:30   0.32   97.1    31    5.0   349     9.9   974.7    0.00 
 181   14:40   0.41   97.1    31    5.7   332    12.1   974.5    0.00 
 181   14:50   0.45   97.8    31    3.6   328     7.8   974.4    0.00 
 181   15:00   0.41   97.9    31    3.7    13     7.5   974.3    0.00 
 181   15:10   0.59   98.8    30    4.3   344    10.2   974.5    0.00 
 181   15:20   0.52   99.8    27    3.3   350     9.3   974.4    0.00 
 181   15:30   0.51  100.4    26    3.9    10     9.0   974.3    0.00 
 181   15:40   0.49  100.0    26    6.4   351    12.6   974.1    0.00 
 181   15:50   0.51  100.2    26    8.0    25    12.3   973.9    0.00 
 181   16:00   0.51  100.3    25    9.3     4    14.8   973.8    0.00 
 181   16:10   0.48   99.8    25    8.4     6    11.8   973.6    0.00 
 181   16:20   0.45   99.4    25    7.9   346    12.4   973.4    0.00 
 181   16:30   0.43  100.5    24    3.4   284     6.3   973.3    0.00 
 181   16:40   0.41  101.3    24    4.8    55    13.2   973.0    0.00 
 181   16:50   0.35  100.3    25    7.5    68    12.6   972.9    0.00 
 181   17:00   0.29   99.7    26    7.1    58    13.2   972.9    0.00 
 181   17:10   0.26   99.7    26    6.8    55    12.1   972.9    0.00 
 181   17:20   0.23   99.3    26    6.6    62    11.8   972.9    0.00 
 181   17:30   0.20   98.9    26    5.8    74    10.2   972.9    0.00 
 181   17:40   0.17   99.0    26    5.8    59    12.0   972.9    0.00 
 181   17:50   0.12   99.0    26    5.8    16    10.7   972.9    0.00 
 181   18:00   0.04   98.0    26    4.3   352     7.0   973.0    0.00 
 181   18:10   0.03   97.6    26    5.1   345     8.3   973.0    0.00 
 181   18:20   0.02   97.3    26    3.1   336     6.6   973.0    0.00 
 181   18:30   0.01   97.1    26    4.6   346     8.2   972.9    0.00 
 181   18:40   0.01   96.5    27    5.3   352     7.7   972.8    0.00 
 181   18:50   0.00   96.2    27    5.6   352     7.7   972.8    0.00 
 181   19:00   0.00   95.7    27    5.4   351     7.4   972.8    0.00 
 181   19:10   0.00   95.5    27    3.7    10     5.8   972.7    0.00 
 181   19:20   0.00   95.3    27    2.5   338     3.9   972.8    0.00 
 181   19:30   0.00   95.1    27    3.0   343     4.2   972.7    0.00 
 181   19:40   0.00   94.9    27    2.1    10     3.4   972.8    0.00 
 181   19:50   0.00   94.6    27    3.4   349     5.5   972.8    0.00 
 181   20:00   0.00   94.2    28    3.4   351     4.9   972.7    0.00 
 181   20:10   0.00   93.8    28    3.5    16     4.9   972.9    0.00 
 181   20:20   0.00   93.0    28    2.8    52     3.8   972.9    0.00 
 181   20:30   0.00   92.5    29    1.2    56     2.9   973.1    0.00 
 181   20:40   0.00   92.3    29    0.6    68     1.7   973.2    0.00 
 181   20:50   0.00   92.1    29    1.1    77     3.2   973.1    0.00 
 181   21:00   0.00   91.6    29    2.8    50     4.0   973.2    0.00 
 181   21:10   0.00   91.2    30    1.7    17     3.1   973.0    0.00 
 181   21:20   0.00   90.7    30    2.1    69     3.5   973.1    0.00 
 181   21:30   0.00   90.5    30    1.5    29     3.2   973.2    0.00 
 181   21:40   0.00   90.3    29    1.4   121     2.6   973.4    0.00 
 181   21:50   0.00   90.4    29    2.0   175     3.4   973.3    0.00 
 181   22:00   0.00   90.4    29    2.4   204     3.8   973.2    0.00 
 181   22:10   0.00   90.0    29    1.9    73     4.0   973.2    0.00 
 181   22:20   0.00   89.7    29    2.5    18     3.5   973.3    0.00 
 181   22:30   0.00   89.5    30    3.8   356     5.9   973.5    0.00 
 181   22:40   0.00   88.9    30    2.8    35     4.2   973.6    0.00 
 181   22:50   0.00   88.5    30    3.2    34     4.6   973.7    0.00 
 181   23:00   0.00   88.2    31    2.3    87     3.9   973.7    0.00 
 181   23:10   0.00   88.2    30    0.7    51     1.8   973.6    0.00 
 181   23:20   0.00   88.1    31    0.8   251     1.9   973.5    0.00 
 181   23:30   0.00   88.1    31    0.7   114     1.7   973.3    0.00 
 181   23:40   0.00   88.2    30    0.0   103     0.9   973.0    0.00 
 181   23:50   0.00   88.1    30    1.4    23     3.1   973.2    0.00 
 182    0:00   0.00   88.4    32    3.1   211     4.2   973.3    0.00 
 182    0:10   0.00   89.0    31    3.4   206     5.3   973.5    0.00 
 182    0:20   0.00   91.8    29    4.8   101    10.5   974.0    0.00 
 182    0:30   0.00   92.7    29    3.8   151     7.1   974.2    0.00 
 182    0:40   0.00   93.9    28    5.6   141    12.0   974.3    0.00 
 182    0:50   0.00   93.4    31    4.4    92    13.2   974.6    0.00 
 182    1:00   0.00   91.6    31    9.2    58    14.5   974.8    0.00 
 182    1:10   0.00   90.5    31    7.7    75    14.2   975.1    0.00 
 182    1:20   0.00   89.5    31    7.7    88    12.9   975.5    0.00 
 182    1:30   0.00   89.0    31    5.2    81    11.8   975.7    0.00 
 182    1:40   0.00   87.5    40    8.0    60    13.4   975.9    0.00 
 182    1:50   0.00   85.4    53    5.9    57    11.4   976.1    0.00 
 182    2:00   0.00   84.5    57    4.6    48     8.7   976.6    0.00 
 182    2:10   0.00   84.7    57    5.2    52     9.9   976.8    0.00 
 182    2:20   0.00   84.2    57    3.6    64     6.4   976.9    0.00 
 182    2:30   0.00   84.0    57    4.5    78     7.8   976.8    0.00 
 182    2:40   0.00   84.0    58    2.0   288     3.9   976.6    0.00 
 182    2:50   0.00   84.0    57    1.7    50     4.7   976.5    0.00 
 182    3:00   0.00   83.9    57    1.1   304     2.6   976.2    0.00 
 182    3:10   0.00   83.8    57    2.3    23     3.0   976.1    0.00 
 182    3:20   0.00   83.9    57    2.1    10     2.9   976.1    0.00 
 182    3:30   0.00   84.0    57    1.1   113     2.2   976.0    0.00 
 182    3:40   0.00   84.1    57    1.2   151     3.1   976.0    0.00 

Return to Boyd Deep Canyon Reserve graphs page.


Western Regional Climate Center,wrcc@dri.edu